TKJ5NM LTFH-LTAC
Flight info
| Callsign | TKJ5NM |
|---|---|
| Flight time | 0h 37m |
| Altitude | 32000 |
| Route | HAVZA UW71 ILHAN |
| Aircraft | B738/M-SDE2E3FGHIRWXY/LB1 |
Departure
| Time | 2026-04-21 22:40 |
|---|---|
| Airport | Samsun-Çarşamba Airport (LTFH) |
Arrival
| Time | 2026-04-21 23:17 |
|---|---|
| Airport | Esenboğa International Airport (LTAC) |
| Time | Latitude | Longitude | Altitude | Speed | Heading |
|---|---|---|---|---|---|
| 2026-04-21 22:29 | 41.25882 | 36.55478 | 17 ft | 0 kts | 110° |
| 2026-04-21 22:37 | 41.25886 | 36.55486 | 17 ft | 3 kts | 51° |
| 2026-04-21 22:38 | 41.25928 | 36.55508 | 17 ft | 12 kts | 20° |
| 2026-04-21 22:38 | 41.26019 | 36.55429 | 18 ft | 22 kts | 313° |
| 2026-04-21 22:38 | 41.26148 | 36.55249 | 16 ft | 31 kts | 319° |
| 2026-04-21 22:38 | 41.26284 | 36.55306 | 18 ft | 26 kts | 44° |
| 2026-04-21 22:39 | 41.26331 | 36.55477 | 17 ft | 18 kts | 129° |
| 2026-04-21 22:39 | 41.26195 | 36.55670 | 17 ft | 58 kts | 134° |
| 2026-04-21 22:39 | 41.25693 | 36.56364 | 19 ft | 146 kts | 133° |
| 2026-04-21 22:39 | 41.24869 | 36.57510 | 496 ft | 187 kts | 134° |
| 2026-04-21 22:40 | 41.23987 | 36.58815 | 1691 ft | 186 kts | 122° |
| 2026-04-21 22:40 | 41.23712 | 36.60514 | 2699 ft | 200 kts | 83° |
| 2026-04-21 22:40 | 41.24025 | 36.62442 | 3125 ft | 231 kts | 65° |
| 2026-04-21 22:40 | 41.25156 | 36.64089 | 3499 ft | 257 kts | 25° |
| 2026-04-21 22:41 | 41.26915 | 36.64481 | 4331 ft | 263 kts | 349° |
| 2026-04-21 22:41 | 41.28542 | 36.63440 | 5285 ft | 264 kts | 316° |
| 2026-04-21 22:41 | 41.29580 | 36.61444 | 6245 ft | 266 kts | 290° |
| 2026-04-21 22:41 | 41.29849 | 36.59009 | 7147 ft | 271 kts | 262° |
| 2026-04-21 22:42 | 41.29206 | 36.56658 | 8083 ft | 273 kts | 244° |
| 2026-04-21 22:42 | 41.28432 | 36.54325 | 8963 ft | 278 kts | 248° |
| 2026-04-21 22:42 | 41.27705 | 36.51922 | 9833 ft | 282 kts | 249° |
| 2026-04-21 22:42 | 41.26967 | 36.49462 | 10542 ft | 294 kts | 248° |
| 2026-04-21 22:43 | 41.26167 | 36.46819 | 10760 ft | 322 kts | 248° |
| 2026-04-21 22:43 | 41.25303 | 36.43991 | 11294 ft | 336 kts | 248° |
| 2026-04-21 22:43 | 41.24411 | 36.41097 | 12078 ft | 341 kts | 248° |
| 2026-04-21 22:43 | 41.23504 | 36.38172 | 12909 ft | 344 kts | 248° |
| 2026-04-21 22:44 | 41.22583 | 36.35213 | 13663 ft | 350 kts | 248° |
| 2026-04-21 22:44 | 41.21647 | 36.32214 | 14454 ft | 353 kts | 248° |
| 2026-04-21 22:44 | 41.20713 | 36.29226 | 15201 ft | 357 kts | 248° |
| 2026-04-21 22:44 | 41.19756 | 36.26172 | 16048 ft | 358 kts | 248° |
| 2026-04-21 22:45 | 41.18804 | 36.23139 | 16962 ft | 355 kts | 248° |
| 2026-04-21 22:45 | 41.17855 | 36.20119 | 17649 ft | 353 kts | 248° |
| 2026-04-21 22:45 | 41.16908 | 36.17106 | 17976 ft | 356 kts | 248° |
| 2026-04-21 22:45 | 41.15945 | 36.14046 | 17987 ft | 360 kts | 248° |
| 2026-04-21 22:46 | 41.14984 | 36.10996 | 17997 ft | 356 kts | 248° |
| 2026-04-21 22:46 | 41.14033 | 36.07982 | 17999 ft | 352 kts | 248° |
| 2026-04-21 22:46 | 41.13091 | 36.04999 | 17995 ft | 351 kts | 248° |
| 2026-04-21 22:46 | 41.12140 | 36.01989 | 18011 ft | 356 kts | 248° |
| 2026-04-21 22:47 | 41.11180 | 35.98952 | 18014 ft | 357 kts | 247° |
| 2026-04-21 22:47 | 41.10219 | 35.95920 | 17998 ft | 356 kts | 247° |
| 2026-04-21 22:47 | 41.09260 | 35.92898 | 18002 ft | 356 kts | 248° |
| 2026-04-21 22:47 | 41.08339 | 35.89862 | 18000 ft | 355 kts | 249° |
| 2026-04-21 22:48 | 41.07449 | 35.86808 | 17996 ft | 355 kts | 249° |
| 2026-04-21 22:48 | 41.06563 | 35.83749 | 17998 ft | 356 kts | 249° |
| 2026-04-21 22:48 | 41.05676 | 35.80694 | 18009 ft | 356 kts | 249° |
| 2026-04-21 22:48 | 41.04782 | 35.77635 | 18002 ft | 356 kts | 249° |
| 2026-04-21 22:49 | 41.03885 | 35.74576 | 18004 ft | 356 kts | 249° |
| 2026-04-21 22:49 | 41.02985 | 35.71524 | 18004 ft | 356 kts | 249° |
| 2026-04-21 22:49 | 41.02085 | 35.68469 | 18002 ft | 356 kts | 249° |
| 2026-04-21 22:49 | 41.01202 | 35.65407 | 17998 ft | 356 kts | 249° |
| 2026-04-21 22:50 | 41.00329 | 35.62345 | 18004 ft | 356 kts | 249° |
| 2026-04-21 22:50 | 40.99457 | 35.59280 | 17997 ft | 356 kts | 249° |
| 2026-04-21 22:50 | 40.98584 | 35.56220 | 18003 ft | 356 kts | 249° |
| 2026-04-21 22:50 | 40.97707 | 35.53155 | 17999 ft | 356 kts | 249° |
| 2026-04-21 22:51 | 40.96829 | 35.50091 | 18003 ft | 356 kts | 249° |
| 2026-04-21 22:51 | 40.95948 | 35.47028 | 18003 ft | 357 kts | 249° |
| 2026-04-21 22:51 | 40.95064 | 35.43956 | 18005 ft | 358 kts | 249° |
| 2026-04-21 22:51 | 40.94176 | 35.40876 | 18006 ft | 359 kts | 249° |
| 2026-04-21 22:52 | 40.93287 | 35.37794 | 18001 ft | 359 kts | 249° |
| 2026-04-21 22:52 | 40.92395 | 35.34702 | 18006 ft | 360 kts | 249° |
| 2026-04-21 22:52 | 40.91500 | 35.31607 | 18005 ft | 360 kts | 249° |
| 2026-04-21 22:52 | 40.90607 | 35.28517 | 18006 ft | 360 kts | 249° |
| 2026-04-21 22:53 | 40.89712 | 35.25427 | 18005 ft | 359 kts | 249° |
| 2026-04-21 22:53 | 40.88820 | 35.22349 | 17999 ft | 358 kts | 249° |
| 2026-04-21 22:53 | 40.87929 | 35.19278 | 18000 ft | 357 kts | 249° |
| 2026-04-21 22:53 | 40.87039 | 35.16216 | 17998 ft | 356 kts | 249° |
| 2026-04-21 22:54 | 40.86152 | 35.13164 | 17997 ft | 356 kts | 249° |
| 2026-04-21 22:54 | 40.85262 | 35.10110 | 17999 ft | 356 kts | 249° |
| 2026-04-21 22:54 | 40.84372 | 35.07055 | 18003 ft | 357 kts | 249° |
| 2026-04-21 22:54 | 40.83480 | 35.04000 | 18005 ft | 357 kts | 249° |
| 2026-04-21 22:55 | 40.82587 | 35.00942 | 18004 ft | 357 kts | 249° |
| 2026-04-21 22:55 | 40.81692 | 34.97885 | 18002 ft | 357 kts | 249° |
| 2026-04-21 22:55 | 40.80798 | 34.94833 | 17998 ft | 357 kts | 249° |
| 2026-04-21 22:55 | 40.79904 | 34.91782 | 18002 ft | 356 kts | 249° |
| 2026-04-21 22:56 | 40.79012 | 34.88743 | 17997 ft | 355 kts | 249° |
| 2026-04-21 22:56 | 40.78119 | 34.85703 | 18000 ft | 355 kts | 249° |
| 2026-04-21 22:56 | 40.77227 | 34.82671 | 17999 ft | 355 kts | 249° |
| 2026-04-21 22:56 | 40.76334 | 34.79638 | 18003 ft | 354 kts | 249° |
| 2026-04-21 22:57 | 40.75442 | 34.76612 | 18005 ft | 354 kts | 249° |
| 2026-04-21 22:57 | 40.74547 | 34.73582 | 18000 ft | 354 kts | 249° |
| 2026-04-21 22:57 | 40.73642 | 34.70558 | 17996 ft | 354 kts | 249° |
| 2026-04-21 22:57 | 40.72733 | 34.67542 | 17994 ft | 355 kts | 248° |
| 2026-04-21 22:58 | 40.71817 | 34.64517 | 18010 ft | 356 kts | 248° |
| 2026-04-21 22:58 | 40.70900 | 34.61487 | 18008 ft | 356 kts | 248° |
| 2026-04-21 22:58 | 40.69982 | 34.58456 | 18000 ft | 357 kts | 248° |
| 2026-04-21 22:58 | 40.69062 | 34.55418 | 18002 ft | 357 kts | 248° |
| 2026-04-21 22:59 | 40.68140 | 34.52378 | 17997 ft | 357 kts | 248° |
| 2026-04-21 22:59 | 40.67220 | 34.49345 | 18002 ft | 357 kts | 248° |
| 2026-04-21 22:59 | 40.66299 | 34.46312 | 17996 ft | 356 kts | 248° |
| 2026-04-21 22:59 | 40.65391 | 34.43326 | 17998 ft | 356 kts | 248° |
| 2026-04-21 23:00 | 40.64473 | 34.40306 | 18001 ft | 355 kts | 248° |
| 2026-04-21 23:00 | 40.63540 | 34.37245 | 18003 ft | 355 kts | 248° |
| 2026-04-21 23:00 | 40.62633 | 34.34270 | 18001 ft | 355 kts | 248° |
| 2026-04-21 23:00 | 40.61701 | 34.31220 | 18004 ft | 355 kts | 248° |
| 2026-04-21 23:01 | 40.60782 | 34.28211 | 18004 ft | 353 kts | 248° |
| 2026-04-21 23:01 | 40.59880 | 34.25264 | 17988 ft | 342 kts | 248° |
| 2026-04-21 23:01 | 40.59001 | 34.22395 | 17990 ft | 335 kts | 248° |
| 2026-04-21 23:01 | 40.58131 | 34.19558 | 17993 ft | 334 kts | 248° |
| 2026-04-21 23:02 | 40.57261 | 34.16722 | 17993 ft | 336 kts | 248° |
| 2026-04-21 23:02 | 40.56382 | 34.13861 | 17728 ft | 336 kts | 248° |
| 2026-04-21 23:02 | 40.55510 | 34.11026 | 17434 ft | 335 kts | 248° |
| 2026-04-21 23:02 | 40.54637 | 34.08190 | 17059 ft | 333 kts | 248° |
| 2026-04-21 23:03 | 40.53770 | 34.05379 | 16698 ft | 330 kts | 248° |
| 2026-04-21 23:03 | 40.52922 | 34.02629 | 16341 ft | 328 kts | 248° |
| 2026-04-21 23:03 | 40.52057 | 33.99825 | 15970 ft | 326 kts | 248° |
| 2026-04-21 23:03 | 40.51206 | 33.97074 | 15608 ft | 324 kts | 248° |
| 2026-04-21 23:04 | 40.50363 | 33.94344 | 15242 ft | 322 kts | 249° |
| 2026-04-21 23:04 | 40.49612 | 33.91582 | 14859 ft | 320 kts | 252° |
| 2026-04-21 23:04 | 40.48932 | 33.88805 | 14499 ft | 318 kts | 252° |
| 2026-04-21 23:04 | 40.48267 | 33.86043 | 14141 ft | 317 kts | 252° |
| 2026-04-21 23:05 | 40.47609 | 33.83332 | 13788 ft | 315 kts | 252° |
| 2026-04-21 23:05 | 40.46939 | 33.80602 | 13431 ft | 313 kts | 252° |
| 2026-04-21 23:05 | 40.46269 | 33.77894 | 13076 ft | 311 kts | 252° |
| 2026-04-21 23:05 | 40.45598 | 33.75199 | 12720 ft | 309 kts | 252° |
| 2026-04-21 23:06 | 40.44928 | 33.72521 | 12369 ft | 308 kts | 252° |
| 2026-04-21 23:06 | 40.44256 | 33.69867 | 12018 ft | 306 kts | 250° |
| 2026-04-21 23:06 | 40.43495 | 33.67268 | 11671 ft | 304 kts | 248° |
| 2026-04-21 23:06 | 40.42689 | 33.64709 | 11325 ft | 302 kts | 248° |
| 2026-04-21 23:07 | 40.41881 | 33.62173 | 10979 ft | 301 kts | 248° |
| 2026-04-21 23:07 | 40.41077 | 33.59647 | 10633 ft | 299 kts | 248° |
| 2026-04-21 23:07 | 40.40281 | 33.57133 | 10304 ft | 297 kts | 248° |
| 2026-04-21 23:07 | 40.39505 | 33.54673 | 10194 ft | 287 kts | 248° |
| 2026-04-21 23:08 | 40.38754 | 33.52285 | 10059 ft | 279 kts | 248° |
| 2026-04-21 23:08 | 40.38022 | 33.49954 | 9833 ft | 275 kts | 248° |
| 2026-04-21 23:08 | 40.37296 | 33.47643 | 9550 ft | 273 kts | 248° |
| 2026-04-21 23:08 | 40.36575 | 33.45344 | 9268 ft | 272 kts | 248° |
| 2026-04-21 23:09 | 40.35858 | 33.43062 | 8984 ft | 270 kts | 248° |
| 2026-04-21 23:09 | 40.35143 | 33.40787 | 8698 ft | 269 kts | 248° |
| 2026-04-21 23:09 | 40.34432 | 33.38523 | 8407 ft | 268 kts | 248° |
| 2026-04-21 23:09 | 40.33730 | 33.36266 | 8118 ft | 267 kts | 251° |
| 2026-04-21 23:10 | 40.33393 | 33.33905 | 7944 ft | 260 kts | 265° |
| 2026-04-21 23:10 | 40.33230 | 33.31580 | 7811 ft | 253 kts | 264° |
| 2026-04-21 23:10 | 40.33058 | 33.29323 | 7711 ft | 245 kts | 264° |
| 2026-04-21 23:10 | 40.32887 | 33.27132 | 7596 ft | 238 kts | 264° |
| 2026-04-21 23:11 | 40.32723 | 33.25041 | 7499 ft | 230 kts | 264° |
| 2026-04-21 23:11 | 40.32560 | 33.22966 | 7415 ft | 224 kts | 264° |
| 2026-04-21 23:11 | 40.32404 | 33.20983 | 7311 ft | 219 kts | 264° |
| 2026-04-21 23:11 | 40.32159 | 33.19034 | 7120 ft | 210 kts | 248° |
| 2026-04-21 23:12 | 40.31256 | 33.17643 | 6985 ft | 205 kts | 215° |
| 2026-04-21 23:12 | 40.30113 | 33.16522 | 6766 ft | 204 kts | 225° |
| 2026-04-21 23:12 | 40.29137 | 33.15238 | 6618 ft | 192 kts | 221° |
| 2026-04-21 23:12 | 40.28095 | 33.14196 | 6501 ft | 191 kts | 217° |
| 2026-04-21 23:13 | 40.27014 | 33.13179 | 6259 ft | 190 kts | 217° |
| 2026-04-21 23:13 | 40.25954 | 33.12177 | 6005 ft | 186 kts | 217° |
| 2026-04-21 23:13 | 40.24920 | 33.11195 | 5765 ft | 181 kts | 217° |
| 2026-04-21 23:13 | 40.23907 | 33.10231 | 5535 ft | 180 kts | 217° |
| 2026-04-21 23:14 | 40.23221 | 33.09577 | 5370 ft | 181 kts | 217° |
| 2026-04-21 23:14 | 40.22200 | 33.08605 | 5133 ft | 181 kts | 217° |
| 2026-04-21 23:14 | 40.21184 | 33.07637 | 4883 ft | 180 kts | 217° |
| 2026-04-21 23:14 | 40.20185 | 33.06685 | 4675 ft | 174 kts | 217° |
| 2026-04-21 23:15 | 40.19234 | 33.05780 | 4431 ft | 163 kts | 217° |
| 2026-04-21 23:15 | 40.18360 | 33.04948 | 4205 ft | 149 kts | 217° |
| 2026-04-21 23:15 | 40.17545 | 33.04170 | 4007 ft | 142 kts | 217° |
| 2026-04-21 23:15 | 40.16751 | 33.03413 | 3840 ft | 142 kts | 217° |
| 2026-04-21 23:16 | 40.15947 | 33.02647 | 3653 ft | 143 kts | 217° |
| 2026-04-21 23:16 | 40.15148 | 33.01885 | 3460 ft | 142 kts | 217° |
| 2026-04-21 23:16 | 40.14352 | 33.01127 | 3272 ft | 141 kts | 217° |
| 2026-04-21 23:16 | 40.13564 | 33.00375 | 3137 ft | 135 kts | 217° |
| 2026-04-21 23:17 | 40.12910 | 32.99738 | 3135 ft | 96 kts | 216° |
| 2026-04-21 23:17 | 40.12437 | 32.99306 | 3135 ft | 72 kts | 207° |
| 2026-04-21 23:17 | 40.12050 | 32.99182 | 3135 ft | 47 kts | 185° |
| 2026-04-21 23:17 | 40.11852 | 32.99058 | 3135 ft | 16 kts | 205° |
| 2026-04-21 23:18 | 40.11784 | 32.99081 | 3135 ft | 9 kts | 129° |
| 2026-04-21 23:18 | 40.11729 | 32.99117 | 3135 ft | 9 kts | 172° |
| 2026-04-21 23:18 | 40.11669 | 32.99138 | 3135 ft | 9 kts | 155° |
| 2026-04-21 23:18 | 40.11632 | 32.99166 | 3135 ft | 0 kts | 149° |